sensor_id;sensor_type;location;lat;lon;timestamp;temperature;humidity
38090;DHT22;23904;52.322;10.232;2023-04-01T00:00:29;10.30;99.90
38090;DHT22;23904;52.322;10.232;2023-04-01T00:02:58;10.30;99.90
38090;DHT22;23904;52.322;10.232;2023-04-01T00:05:24;10.30;99.90
38090;DHT22;23904;52.322;10.232;2023-04-01T00:07:50;10.30;99.90
38090;DHT22;23904;52.322;10.232;2023-04-01T00:10:16;10.30;99.90
38090;DHT22;23904;52.322;10.232;2023-04-01T00:12:42;10.40;99.90
38090;DHT22;23904;52.322;10.232;2023-04-01T00:15:10;10.40;99.90
38090;DHT22;23904;52.322;10.232;2023-04-01T00:17:37;10.30;99.90
38090;DHT22;23904;52.322;10.232;2023-04-01T00:20:04;10.40;99.90
38090;DHT22;23904;52.322;10.232;2023-04-01T00:22:32;10.40;99.90
38090;DHT22;23904;52.322;10.232;2023-04-01T00:24:59;10.40;99.90
38090;DHT22;23904;52.322;10.232;2023-04-01T00:27:25;10.30;99.90
38090;DHT22;23904;52.322;10.232;2023-04-01T00:29:51;10.30;99.90
38090;DHT22;23904;52.322;10.232;2023-04-01T00:32:17;10.30;99.90
38090;DHT22;23904;52.322;10.232;2023-04-01T00:34:42;10.40;99.90
38090;DHT22;23904;52.322;10.232;2023-04-01T00:37:09;10.30;99.90
38090;DHT22;23904;52.322;10.232;2023-04-01T00:39:35;10.30;99.90
38090;DHT22;23904;52.322;10.232;2023-04-01T00:42:02;10.30;99.90
38090;DHT22;23904;52.322;10.232;2023-04-01T00:44:31;10.30;99.90
38090;DHT22;23904;52.322;10.232;2023-04-01T00:46:59;10.30;99.90
38090;DHT22;23904;52.322;10.232;2023-04-01T00:49:28;10.40;99.90
38090;DHT22;23904;52.322;10.232;2023-04-01T00:51:57;10.40;99.90
38090;DHT22;23904;52.322;10.232;2023-04-01T00:54:25;10.40;99.90
38090;DHT22;23904;52.322;10.232;2023-04-01T00:57:15;10.40;99.90
38090;DHT22;23904;52.322;10.232;2023-04-01T00:59:47;10.30;99.90
38090;DHT22;23904;52.322;10.232;2023-04-01T01:02:15;10.40;99.90
38090;DHT22;23904;52.322;10.232;2023-04-01T01:04:42;10.40;99.90
38090;DHT22;23904;52.322;10.232;2023-04-01T01:07:30;10.30;99.90
38090;DHT22;23904;52.322;10.232;2023-04-01T01:10:20;10.40;99.90
38090;DHT22;23904;52.322;10.232;2023-04-01T01:15:55;10.30;99.90
38090;DHT22;23904;52.322;10.232;2023-04-01T01:19:05;10.30;99.90
38090;DHT22;23904;52.322;10.232;2023-04-01T01:22:02;10.30;99.90
38090;DHT22;23904;52.322;10.232;2023-04-01T01:27:16;10.30;99.90
38090;DHT22;23904;52.322;10.232;2023-04-01T01:30:32;10.30;99.90
38090;DHT22;23904;52.322;10.232;2023-04-01T01:35:57;10.40;99.90
38090;DHT22;23904;52.322;10.232;2023-04-01T01:38:28;10.40;99.90
38090;DHT22;23904;52.322;10.232;2023-04-01T01:40:57;10.30;99.90
38090;DHT22;23904;52.322;10.232;2023-04-01T01:43:29;10.30;99.90
38090;DHT22;23904;52.322;10.232;2023-04-01T01:46:00;10.30;99.90
38090;DHT22;23904;52.322;10.232;2023-04-01T01:48:29;10.30;99.90
38090;DHT22;23904;52.322;10.232;2023-04-01T01:50:58;10.20;99.90
38090;DHT22;23904;52.322;10.232;2023-04-01T01:53:25;10.20;99.90
38090;DHT22;23904;52.322;10.232;2023-04-01T01:55:50;10.10;99.90
38090;DHT22;23904;52.322;10.232;2023-04-01T01:58:24;10.10;99.90
38090;DHT22;23904;52.322;10.232;2023-04-01T02:00:59;10.10;99.90
38090;DHT22;23904;52.322;10.232;2023-04-01T02:03:28;10.10;99.90
38090;DHT22;23904;52.322;10.232;2023-04-01T02:05:59;10.10;99.90
38090;DHT22;23904;52.322;10.232;2023-04-01T02:08:44;10.20;99.90
38090;DHT22;23904;52.322;10.232;2023-04-01T02:11:13;10.20;99.90
38090;DHT22;23904;52.322;10.232;2023-04-01T02:13:56;10.20;99.90
38090;DHT22;23904;52.322;10.232;2023-04-01T02:16:58;10.20;99.90
38090;DHT22;23904;52.322;10.232;2023-04-01T02:19:35;10.10;99.90
38090;DHT22;23904;52.322;10.232;2023-04-01T02:22:10;10.10;99.90
38090;DHT22;23904;52.322;10.232;2023-04-01T02:24:38;10.10;99.90
38090;DHT22;23904;52.322;10.232;2023-04-01T02:27:05;10.10;99.90
38090;DHT22;23904;52.322;10.232;2023-04-01T02:29:31;10.10;99.90
38090;DHT22;23904;52.322;10.232;2023-04-01T02:31:57;10.10;99.90
38090;DHT22;23904;52.322;10.232;2023-04-01T02:34:24;10.10;99.90
38090;DHT22;23904;52.322;10.232;2023-04-01T02:36:51;10.10;99.90
38090;DHT22;23904;52.322;10.232;2023-04-01T02:39:17;10.10;99.90
38090;DHT22;23904;52.322;10.232;2023-04-01T02:41:44;10.00;99.90
38090;DHT22;23904;52.322;10.232;2023-04-01T02:44:13;10.00;99.90
38090;DHT22;23904;52.322;10.232;2023-04-01T02:46:39;10.00;99.90
38090;DHT22;23904;52.322;10.232;2023-04-01T02:49:05;10.00;99.90
38090;DHT22;23904;52.322;10.232;2023-04-01T02:51:32;9.90;99.90
38090;DHT22;23904;52.322;10.232;2023-04-01T02:53:58;10.00;99.90
38090;DHT22;23904;52.322;10.232;2023-04-01T02:56:23;9.90;99.90
38090;DHT22;23904;52.322;10.232;2023-04-01T02:58:49;9.90;99.90
38090;DHT22;23904;52.322;10.232;2023-04-01T03:01:14;9.90;99.90
38090;DHT22;23904;52.322;10.232;2023-04-01T03:03:40;9.90;99.90
38090;DHT22;23904;52.322;10.232;2023-04-01T03:06:12;9.90;99.90
38090;DHT22;23904;52.322;10.232;2023-04-01T03:08:39;10.00;99.90
38090;DHT22;23904;52.322;10.232;2023-04-01T03:11:05;10.00;99.90
38090;DHT22;23904;52.322;10.232;2023-04-01T03:13:31;9.90;99.90
38090;DHT22;23904;52.322;10.232;2023-04-01T03:15:57;10.00;99.90
38090;DHT22;23904;52.322;10.232;2023-04-01T03:18:22;10.00;99.90
38090;DHT22;23904;52.322;10.232;2023-04-01T03:20:48;10.00;99.90
38090;DHT22;23904;52.322;10.232;2023-04-01T03:23:14;10.00;99.90
38090;DHT22;23904;52.322;10.232;2023-04-01T03:25:39;10.00;99.90
38090;DHT22;23904;52.322;10.232;2023-04-01T03:28:05;10.00;99.90
38090;DHT22;23904;52.322;10.232;2023-04-01T03:30:30;10.00;99.90
38090;DHT22;23904;52.322;10.232;2023-04-01T03:32:57;10.00;99.90
38090;DHT22;23904;52.322;10.232;2023-04-01T03:35:24;10.00;99.90
38090;DHT22;23904;52.322;10.232;2023-04-01T03:37:51;10.00;99.90
38090;DHT22;23904;52.322;10.232;2023-04-01T03:40:17;10.00;99.90
38090;DHT22;23904;52.322;10.232;2023-04-01T03:42:43;10.00;99.90
38090;DHT22;23904;52.322;10.232;2023-04-01T03:45:09;10.00;99.90
38090;DHT22;23904;52.322;10.232;2023-04-01T03:47:35;10.00;99.90
38090;DHT22;23904;52.322;10.232;2023-04-01T03:50:02;10.10;99.90
38090;DHT22;23904;52.322;10.232;2023-04-01T03:52:28;10.00;99.90
38090;DHT22;23904;52.322;10.232;2023-04-01T03:54:53;10.00;99.90
38090;DHT22;23904;52.322;10.232;2023-04-01T03:57:19;10.00;99.90
38090;DHT22;23904;52.322;10.232;2023-04-01T03:59:44;10.00;99.90
38090;DHT22;23904;52.322;10.232;2023-04-01T04:02:10;10.00;99.90
38090;DHT22;23904;52.322;10.232;2023-04-01T04:04:35;10.00;99.90
38090;DHT22;23904;52.322;10.232;2023-04-01T04:07:01;10.00;99.90
38090;DHT22;23904;52.322;10.232;2023-04-01T04:09:27;10.00;99.90
38090;DHT22;23904;52.322;10.232;2023-04-01T04:11:52;10.00;99.90
38090;DHT22;23904;52.322;10.232;2023-04-01T04:14:18;9.90;99.90
38090;DHT22;23904;52.322;10.232;2023-04-01T04:16:44;10.00;99.90
38090;DHT22;23904;52.322;10.232;2023-04-01T04:19:09;10.00;99.90
38090;DHT22;23904;52.322;10.232;2023-04-01T04:21:35;9.90;99.90
38090;DHT22;23904;52.322;10.232;2023-04-01T04:24:01;9.90;99.90
38090;DHT22;23904;52.322;10.232;2023-04-01T04:26:28;9.90;99.90
38090;DHT22;23904;52.322;10.232;2023-04-01T04:28:55;9.90;99.90
38090;DHT22;23904;52.322;10.232;2023-04-01T04:31:22;9.90;99.90
38090;DHT22;23904;52.322;10.232;2023-04-01T04:33:49;9.90;99.90
38090;DHT22;23904;52.322;10.232;2023-04-01T04:36:15;9.90;99.90
38090;DHT22;23904;52.322;10.232;2023-04-01T04:38:40;9.90;99.90
38090;DHT22;23904;52.322;10.232;2023-04-01T04:41:10;10.00;99.90
38090;DHT22;23904;52.322;10.232;2023-04-01T04:43:38;10.00;99.90
38090;DHT22;23904;52.322;10.232;2023-04-01T04:46:08;9.90;99.90
38090;DHT22;23904;52.322;10.232;2023-04-01T04:48:34;9.90;99.90
38090;DHT22;23904;52.322;10.232;2023-04-01T04:51:00;9.90;99.90
38090;DHT22;23904;52.322;10.232;2023-04-01T04:53:26;9.90;99.90
38090;DHT22;23904;52.322;10.232;2023-04-01T04:55:52;9.90;99.90
38090;DHT22;23904;52.322;10.232;2023-04-01T04:58:18;9.90;99.90
38090;DHT22;23904;52.322;10.232;2023-04-01T05:00:44;10.00;99.90
38090;DHT22;23904;52.322;10.232;2023-04-01T05:03:11;10.00;99.90
38090;DHT22;23904;52.322;10.232;2023-04-01T05:05:37;9.90;99.90
38090;DHT22;23904;52.322;10.232;2023-04-01T05:08:04;9.90;99.90
38090;DHT22;23904;52.322;10.232;2023-04-01T05:10:30;9.90;99.90
38090;DHT22;23904;52.322;10.232;2023-04-01T05:12:56;9.90;99.90
38090;DHT22;23904;52.322;10.232;2023-04-01T05:15:23;9.90;99.90
38090;DHT22;23904;52.322;10.232;2023-04-01T05:17:48;9.90;99.90
38090;DHT22;23904;52.322;10.232;2023-04-01T05:20:15;9.90;99.90
38090;DHT22;23904;52.322;10.232;2023-04-01T05:22:41;10.00;99.90
38090;DHT22;23904;52.322;10.232;2023-04-01T05:25:07;10.00;99.90
38090;DHT22;23904;52.322;10.232;2023-04-01T05:27:33;10.00;99.90
38090;DHT22;23904;52.322;10.232;2023-04-01T05:29:58;10.00;99.90
38090;DHT22;23904;52.322;10.232;2023-04-01T05:32:24;10.00;99.90
38090;DHT22;23904;52.322;10.232;2023-04-01T05:34:51;10.00;99.90
38090;DHT22;23904;52.322;10.232;2023-04-01T05:37:17;10.00;99.90
38090;DHT22;23904;52.322;10.232;2023-04-01T05:39:43;10.00;99.90
38090;DHT22;23904;52.322;10.232;2023-04-01T05:42:08;10.10;99.90
38090;DHT22;23904;52.322;10.232;2023-04-01T05:44:35;10.10;99.90
38090;DHT22;23904;52.322;10.232;2023-04-01T05:47:01;10.10;99.90
38090;DHT22;23904;52.322;10.232;2023-04-01T05:49:28;10.10;99.90
38090;DHT22;23904;52.322;10.232;2023-04-01T05:51:53;10.10;99.90
38090;DHT22;23904;52.322;10.232;2023-04-01T05:54:19;10.10;99.90
38090;DHT22;23904;52.322;10.232;2023-04-01T05:56:45;10.10;99.90
38090;DHT22;23904;52.322;10.232;2023-04-01T05:59:11;10.20;99.90
38090;DHT22;23904;52.322;10.232;2023-04-01T06:01:38;10.20;99.90
38090;DHT22;23904;52.322;10.232;2023-04-01T06:04:04;10.30;99.90
38090;DHT22;23904;52.322;10.232;2023-04-01T06:06:31;10.30;99.90
38090;DHT22;23904;52.322;10.232;2023-04-01T06:09:04;10.30;99.90
38090;DHT22;23904;52.322;10.232;2023-04-01T06:15:11;10.30;99.90
38090;DHT22;23904;52.322;10.232;2023-04-01T06:21:06;10.30;99.90
38090;DHT22;23904;52.322;10.232;2023-04-01T06:24:11;10.20;99.90
38090;DHT22;23904;52.322;10.232;2023-04-01T06:27:21;10.20;99.90
38090;DHT22;23904;52.322;10.232;2023-04-01T06:30:33;10.30;99.90
38090;DHT22;23904;52.322;10.232;2023-04-01T06:36:09;10.40;99.90
38090;DHT22;23904;52.322;10.232;2023-04-01T06:42:13;10.40;99.90
38090;DHT22;23904;52.322;10.232;2023-04-01T06:44:49;10.50;99.90
38090;DHT22;23904;52.322;10.232;2023-04-01T06:47:35;10.60;99.90
38090;DHT22;23904;52.322;10.232;2023-04-01T06:50:29;10.60;99.90
38090;DHT22;23904;52.322;10.232;2023-04-01T06:53:12;10.70;99.90
38090;DHT22;23904;52.322;10.232;2023-04-01T06:55:47;10.80;99.90
38090;DHT22;23904;52.322;10.232;2023-04-01T06:58:22;10.90;99.90
38090;DHT22;23904;52.322;10.232;2023-04-01T07:00:53;10.90;99.90
38090;DHT22;23904;52.322;10.232;2023-04-01T07:03:29;11.00;99.90
38090;DHT22;23904;52.322;10.232;2023-04-01T07:06:06;11.00;99.90
38090;DHT22;23904;52.322;10.232;2023-04-01T07:08:37;11.00;99.90
38090;DHT22;23904;52.322;10.232;2023-04-01T07:11:25;11.00;99.90
38090;DHT22;23904;52.322;10.232;2023-04-01T07:14:20;11.10;99.90
38090;DHT22;23904;52.322;10.232;2023-04-01T07:19:47;11.10;99.90
38090;DHT22;23904;52.322;10.232;2023-04-01T07:22:55;11.20;99.90
38090;DHT22;23904;52.322;10.232;2023-04-01T07:25:38;11.20;99.90
38090;DHT22;23904;52.322;10.232;2023-04-01T07:28:12;11.40;99.90
38090;DHT22;23904;52.322;10.232;2023-04-01T07:31:10;11.50;99.90
38090;DHT22;23904;52.322;10.232;2023-04-01T07:33:51;11.60;99.90
38090;DHT22;23904;52.322;10.232;2023-04-01T07:36:42;11.70;99.90
38090;DHT22;23904;52.322;10.232;2023-04-01T07:42:01;11.90;99.90
38090;DHT22;23904;52.322;10.232;2023-04-01T07:44:44;11.90;99.90
38090;DHT22;23904;52.322;10.232;2023-04-01T07:47:28;11.90;99.90
38090;DHT22;23904;52.322;10.232;2023-04-01T07:53:34;12.10;99.90
38090;DHT22;23904;52.322;10.232;2023-04-01T07:56:37;12.20;99.90
38090;DHT22;23904;52.322;10.232;2023-04-01T07:59:28;12.10;99.90
38090;DHT22;23904;52.322;10.232;2023-04-01T08:02:39;12.20;99.90
38090;DHT22;23904;52.322;10.232;2023-04-01T08:11:10;12.30;99.90
38090;DHT22;23904;52.322;10.232;2023-04-01T08:14:07;12.40;99.90
38090;DHT22;23904;52.322;10.232;2023-04-01T08:17:05;12.40;99.90
38090;DHT22;23904;52.322;10.232;2023-04-01T08:22:36;12.80;99.90
38090;DHT22;23904;52.322;10.232;2023-04-01T08:25:06;12.90;99.90
38090;DHT22;23904;52.322;10.232;2023-04-01T08:31:00;13.80;99.90
38090;DHT22;23904;52.322;10.232;2023-04-01T08:33:31;14.20;99.90
38090;DHT22;23904;52.322;10.232;2023-04-01T08:36:12;14.60;99.90
38090;DHT22;23904;52.322;10.232;2023-04-01T08:38:49;15.50;99.90
38090;DHT22;23904;52.322;10.232;2023-04-01T08:41:42;16.70;99.90
38090;DHT22;23904;52.322;10.232;2023-04-01T08:44:50;17.90;99.90
38090;DHT22;23904;52.322;10.232;2023-04-01T08:56:39;15.50;99.90
38090;DHT22;23904;52.322;10.232;2023-04-01T08:59:46;15.10;99.90
38090;DHT22;23904;52.322;10.232;2023-04-01T09:02:26;14.50;99.90
38090;DHT22;23904;52.322;10.232;2023-04-01T09:08:03;14.30;99.90
38090;DHT22;23904;52.322;10.232;2023-04-01T09:11:12;14.20;99.90
38090;DHT22;23904;52.322;10.232;2023-04-01T09:13:58;14.20;99.90
38090;DHT22;23904;52.322;10.232;2023-04-01T09:20:02;14.50;99.90
38090;DHT22;23904;52.322;10.232;2023-04-01T09:23:14;14.50;99.90
38090;DHT22;23904;52.322;10.232;2023-04-01T09:26:18;14.30;99.90
38090;DHT22;23904;52.322;10.232;2023-04-01T09:32:11;14.00;99.90
38090;DHT22;23904;52.322;10.232;2023-04-01T09:35:14;13.60;99.90
38090;DHT22;23904;52.322;10.232;2023-04-01T09:43:46;13.30;99.90
38090;DHT22;23904;52.322;10.232;2023-04-01T09:52:36;13.60;99.90
38090;DHT22;23904;52.322;10.232;2023-04-01T09:56:08;14.00;99.90
38090;DHT22;23904;52.322;10.232;2023-04-01T09:59:38;14.30;99.90
38090;DHT22;23904;52.322;10.232;2023-04-01T10:03:08;14.60;99.90
38090;DHT22;23904;52.322;10.232;2023-04-01T10:06:07;14.80;99.90
38090;DHT22;23904;52.322;10.232;2023-04-01T10:17:56;14.60;99.90
38090;DHT22;23904;52.322;10.232;2023-04-01T10:21:40;14.50;99.90
38090;DHT22;23904;52.322;10.232;2023-04-01T10:24:25;14.40;99.90
38090;DHT22;23904;52.322;10.232;2023-04-01T10:27:21;14.10;99.90
38090;DHT22;23904;52.322;10.232;2023-04-01T10:30:38;13.70;99.90
38090;DHT22;23904;52.322;10.232;2023-04-01T10:45:46;13.80;99.90
38090;DHT22;23904;52.322;10.232;2023-04-01T10:58:13;13.70;99.90
38090;DHT22;23904;52.322;10.232;2023-04-01T11:01:22;13.60;99.90
38090;DHT22;23904;52.322;10.232;2023-04-01T11:25:22;13.30;99.90
38090;DHT22;23904;52.322;10.232;2023-04-01T11:28:33;13.20;99.90
38090;DHT22;23904;52.322;10.232;2023-04-01T11:34:09;13.00;99.90
38090;DHT22;23904;52.322;10.232;2023-04-01T11:37:35;13.00;99.90
38090;DHT22;23904;52.322;10.232;2023-04-01T11:40:07;13.00;99.90
38090;DHT22;23904;52.322;10.232;2023-04-01T11:43:07;13.10;99.90
38090;DHT22;23904;52.322;10.232;2023-04-01T11:46:14;13.30;99.90
38090;DHT22;23904;52.322;10.232;2023-04-01T11:51:34;13.40;99.90
38090;DHT22;23904;52.322;10.232;2023-04-01T11:54:28;13.40;99.90
38090;DHT22;23904;52.322;10.232;2023-04-01T12:00:39;13.40;99.90
38090;DHT22;23904;52.322;10.232;2023-04-01T12:03:54;13.30;99.90
38090;DHT22;23904;52.322;10.232;2023-04-01T12:06:48;13.40;99.90
38090;DHT22;23904;52.322;10.232;2023-04-01T12:13:02;13.60;99.90
38090;DHT22;23904;52.322;10.232;2023-04-01T12:18:46;13.80;99.90
38090;DHT22;23904;52.322;10.232;2023-04-01T12:24:21;13.50;99.90
38090;DHT22;23904;52.322;10.232;2023-04-01T12:27:31;13.80;99.90
38090;DHT22;23904;52.322;10.232;2023-04-01T12:33:51;13.80;99.90
38090;DHT22;23904;52.322;10.232;2023-04-01T12:40:06;13.80;99.90
38090;DHT22;23904;52.322;10.232;2023-04-01T12:43:12;13.80;99.90
38090;DHT22;23904;52.322;10.232;2023-04-01T12:45:56;13.90;99.90
38090;DHT22;23904;52.322;10.232;2023-04-01T12:48:54;13.80;99.90
38090;DHT22;23904;52.322;10.232;2023-04-01T12:51:51;13.80;99.90
38090;DHT22;23904;52.322;10.232;2023-04-01T13:00:46;13.60;99.90
38090;DHT22;23904;52.322;10.232;2023-04-01T13:10:05;13.60;99.90
38090;DHT22;23904;52.322;10.232;2023-04-01T13:16:09;13.50;99.90
38090;DHT22;23904;52.322;10.232;2023-04-01T13:21:35;13.40;99.90
38090;DHT22;23904;52.322;10.232;2023-04-01T13:27:17;13.20;99.90
38090;DHT22;23904;52.322;10.232;2023-04-01T13:36:19;13.10;99.90
38090;DHT22;23904;52.322;10.232;2023-04-01T13:42:57;13.10;99.90
38090;DHT22;23904;52.322;10.232;2023-04-01T13:45:35;13.20;99.90
38090;DHT22;23904;52.322;10.232;2023-04-01T13:48:29;13.00;99.90
38090;DHT22;23904;52.322;10.232;2023-04-01T13:54:45;12.80;99.90
38090;DHT22;23904;52.322;10.232;2023-04-01T14:00:29;12.30;99.90
38090;DHT22;23904;52.322;10.232;2023-04-01T14:06:05;11.80;99.90
38090;DHT22;23904;52.322;10.232;2023-04-01T14:17:47;11.20;99.90
38090;DHT22;23904;52.322;10.232;2023-04-01T14:20:37;11.00;99.90
38090;DHT22;23904;52.322;10.232;2023-04-01T14:29:52;10.90;99.90
38090;DHT22;23904;52.322;10.232;2023-04-01T14:35:46;10.80;99.90
38090;DHT22;23904;52.322;10.232;2023-04-01T14:38:27;10.70;99.90
38090;DHT22;23904;52.322;10.232;2023-04-01T14:50:19;10.40;99.90
38090;DHT22;23904;52.322;10.232;2023-04-01T14:55:50;10.30;99.90
38090;DHT22;23904;52.322;10.232;2023-04-01T14:58:20;10.20;99.90
38090;DHT22;23904;52.322;10.232;2023-04-01T15:01:18;10.10;99.90
38090;DHT22;23904;52.322;10.232;2023-04-01T15:04:08;10.10;99.90
38090;DHT22;23904;52.322;10.232;2023-04-01T15:10:14;10.20;99.90
38090;DHT22;23904;52.322;10.232;2023-04-01T15:13:12;10.10;99.90
38090;DHT22;23904;52.322;10.232;2023-04-01T15:19:04;10.10;99.90
38090;DHT22;23904;52.322;10.232;2023-04-01T15:24:47;9.90;99.90
38090;DHT22;23904;52.322;10.232;2023-04-01T15:27:45;9.80;99.90
38090;DHT22;23904;52.322;10.232;2023-04-01T15:30:28;9.60;99.90
38090;DHT22;23904;52.322;10.232;2023-04-01T15:33:02;9.60;99.90
38090;DHT22;23904;52.322;10.232;2023-04-01T15:38:40;9.60;99.90
38090;DHT22;23904;52.322;10.232;2023-04-01T15:41:14;9.50;99.90
38090;DHT22;23904;52.322;10.232;2023-04-01T15:43:47;9.50;99.90
38090;DHT22;23904;52.322;10.232;2023-04-01T15:46:43;9.50;99.90
38090;DHT22;23904;52.322;10.232;2023-04-01T15:49:27;9.40;99.90
38090;DHT22;23904;52.322;10.232;2023-04-01T15:55:16;9.40;99.90
38090;DHT22;23904;52.322;10.232;2023-04-01T15:58:04;9.30;99.90
38090;DHT22;23904;52.322;10.232;2023-04-01T16:04:18;9.10;99.90
38090;DHT22;23904;52.322;10.232;2023-04-01T16:07:05;9.10;99.90
38090;DHT22;23904;52.322;10.232;2023-04-01T16:12:42;9.10;99.90
38090;DHT22;23904;52.322;10.232;2023-04-01T16:15:39;9.00;99.90
38090;DHT22;23904;52.322;10.232;2023-04-01T16:21:53;8.90;99.90
38090;DHT22;23904;52.322;10.232;2023-04-01T16:24:38;8.90;99.90
38090;DHT22;23904;52.322;10.232;2023-04-01T16:30:44;8.80;99.90
38090;DHT22;23904;52.322;10.232;2023-04-01T16:33:37;8.70;99.90
38090;DHT22;23904;52.322;10.232;2023-04-01T16:36:21;8.70;99.90
38090;DHT22;23904;52.322;10.232;2023-04-01T16:39:18;8.60;99.90
38090;DHT22;23904;52.322;10.232;2023-04-01T16:42:12;8.60;99.90
38090;DHT22;23904;52.322;10.232;2023-04-01T16:44:54;8.60;99.90
38090;DHT22;23904;52.322;10.232;2023-04-01T16:47:32;8.60;99.90
38090;DHT22;23904;52.322;10.232;2023-04-01T16:50:25;8.50;99.90
38090;DHT22;23904;52.322;10.232;2023-04-01T16:53:08;8.40;99.90
38090;DHT22;23904;52.322;10.232;2023-04-01T16:56:04;8.40;99.90
38090;DHT22;23904;52.322;10.232;2023-04-01T17:01:24;8.20;99.90
38090;DHT22;23904;52.322;10.232;2023-04-01T17:03:58;8.20;99.90
38090;DHT22;23904;52.322;10.232;2023-04-01T17:12:36;8.20;99.90
38090;DHT22;23904;52.322;10.232;2023-04-01T17:15:25;8.20;99.90
38090;DHT22;23904;52.322;10.232;2023-04-01T17:18:26;8.20;99.90
38090;DHT22;23904;52.322;10.232;2023-04-01T17:21:10;8.10;99.90
38090;DHT22;23904;52.322;10.232;2023-04-01T17:23:49;8.10;99.90
38090;DHT22;23904;52.322;10.232;2023-04-01T17:26:46;8.00;99.90
38090;DHT22;23904;52.322;10.232;2023-04-01T17:35:47;7.90;99.90
38090;DHT22;23904;52.322;10.232;2023-04-01T17:38:46;7.80;99.90
38090;DHT22;23904;52.322;10.232;2023-04-01T17:48:01;7.60;99.90
38090;DHT22;23904;52.322;10.232;2023-04-01T17:53:47;7.50;99.90
38090;DHT22;23904;52.322;10.232;2023-04-01T17:56:52;7.40;99.90
38090;DHT22;23904;52.322;10.232;2023-04-01T17:59:53;7.40;99.90
38090;DHT22;23904;52.322;10.232;2023-04-01T18:05:41;7.30;99.90
38090;DHT22;23904;52.322;10.232;2023-04-01T18:14:41;7.30;99.90
38090;DHT22;23904;52.322;10.232;2023-04-01T18:17:17;7.20;99.90
38090;DHT22;23904;52.322;10.232;2023-04-01T18:19:56;7.10;99.90
38090;DHT22;23904;52.322;10.232;2023-04-01T18:22:44;7.10;99.90
38090;DHT22;23904;52.322;10.232;2023-04-01T18:25:28;7.10;99.90
38090;DHT22;23904;52.322;10.232;2023-04-01T18:28:16;7.10;99.90
38090;DHT22;23904;52.322;10.232;2023-04-01T18:33:50;7.10;99.90
38090;DHT22;23904;52.322;10.232;2023-04-01T18:36:55;7.10;99.90
38090;DHT22;23904;52.322;10.232;2023-04-01T18:39:35;7.10;99.90
38090;DHT22;23904;52.322;10.232;2023-04-01T18:47:45;7.00;99.90
38090;DHT22;23904;52.322;10.232;2023-04-01T18:50:27;6.90;99.90
38090;DHT22;23904;52.322;10.232;2023-04-01T18:53:21;6.80;99.90
38090;DHT22;23904;52.322;10.232;2023-04-01T18:56:06;6.80;99.90
38090;DHT22;23904;52.322;10.232;2023-04-01T18:58:35;6.80;99.90
38090;DHT22;23904;52.322;10.232;2023-04-01T19:01:36;6.80;99.90
38090;DHT22;23904;52.322;10.232;2023-04-01T19:07:39;6.80;99.90
38090;DHT22;23904;52.322;10.232;2023-04-01T19:10:39;6.80;99.90
38090;DHT22;23904;52.322;10.232;2023-04-01T19:13:23;6.70;99.90
38090;DHT22;23904;52.322;10.232;2023-04-01T19:21:49;6.50;99.90
38090;DHT22;23904;52.322;10.232;2023-04-01T19:24:36;6.50;99.90
38090;DHT22;23904;52.322;10.232;2023-04-01T19:30:29;6.60;99.90
38090;DHT22;23904;52.322;10.232;2023-04-01T19:33:26;6.60;99.90
38090;DHT22;23904;52.322;10.232;2023-04-01T19:36:31;6.50;99.90
38090;DHT22;23904;52.322;10.232;2023-04-01T19:39:18;6.50;99.90
38090;DHT22;23904;52.322;10.232;2023-04-01T19:42:15;6.40;99.90
38090;DHT22;23904;52.322;10.232;2023-04-01T19:51:00;6.30;99.90
38090;DHT22;23904;52.322;10.232;2023-04-01T19:54:12;6.20;99.90
38090;DHT22;23904;52.322;10.232;2023-04-01T19:57:01;6.20;99.90
38090;DHT22;23904;52.322;10.232;2023-04-01T19:59:38;6.10;99.90
38090;DHT22;23904;52.322;10.232;2023-04-01T20:02:24;6.10;99.90
38090;DHT22;23904;52.322;10.232;2023-04-01T20:04:56;6.10;99.90
38090;DHT22;23904;52.322;10.232;2023-04-01T20:07:34;6.00;99.90
38090;DHT22;23904;52.322;10.232;2023-04-01T20:10:15;6.00;99.90
38090;DHT22;23904;52.322;10.232;2023-04-01T20:12:47;6.00;99.90
38090;DHT22;23904;52.322;10.232;2023-04-01T20:15:34;6.00;99.90
38090;DHT22;23904;52.322;10.232;2023-04-01T20:18:13;5.90;99.90
38090;DHT22;23904;52.322;10.232;2023-04-01T20:20:41;5.90;99.90
38090;DHT22;23904;52.322;10.232;2023-04-01T20:23:40;5.90;99.90
38090;DHT22;23904;52.322;10.232;2023-04-01T20:26:12;5.90;99.90
38090;DHT22;23904;52.322;10.232;2023-04-01T20:28:42;5.80;99.90
38090;DHT22;23904;52.322;10.232;2023-04-01T20:33:58;5.70;99.90
38090;DHT22;23904;52.322;10.232;2023-04-01T20:37:09;5.70;99.90
38090;DHT22;23904;52.322;10.232;2023-04-01T20:46:08;5.60;99.90
38090;DHT22;23904;52.322;10.232;2023-04-01T20:49:00;5.60;99.90
38090;DHT22;23904;52.322;10.232;2023-04-01T20:51:46;5.60;99.90
38090;DHT22;23904;52.322;10.232;2023-04-01T20:57:38;5.50;99.90
38090;DHT22;23904;52.322;10.232;2023-04-01T21:03:22;5.50;99.90
38090;DHT22;23904;52.322;10.232;2023-04-01T21:12:23;5.50;99.90
38090;DHT22;23904;52.322;10.232;2023-04-01T21:35:14;5.20;99.90
38090;DHT22;23904;52.322;10.232;2023-04-01T21:41:00;5.20;99.90
38090;DHT22;23904;52.322;10.232;2023-04-01T21:51:00;5.10;99.90
38090;DHT22;23904;52.322;10.232;2023-04-01T21:54:13;5.10;99.90
38090;DHT22;23904;52.322;10.232;2023-04-01T21:59:48;5.20;99.90
38090;DHT22;23904;52.322;10.232;2023-04-01T22:03:03;5.20;99.90
38090;DHT22;23904;52.322;10.232;2023-04-01T22:09:00;5.10;99.90
38090;DHT22;23904;52.322;10.232;2023-04-01T22:22:50;4.90;99.90
38090;DHT22;23904;52.322;10.232;2023-04-01T22:25:42;4.90;99.90
38090;DHT22;23904;52.322;10.232;2023-04-01T22:31:05;4.80;99.90
38090;DHT22;23904;52.322;10.232;2023-04-01T22:37:01;4.80;99.90
38090;DHT22;23904;52.322;10.232;2023-04-01T22:42:22;4.70;99.90
38090;DHT22;23904;52.322;10.232;2023-04-01T22:48:06;4.80;99.90
38090;DHT22;23904;52.322;10.232;2023-04-01T22:50:40;4.80;99.90
38090;DHT22;23904;52.322;10.232;2023-04-01T22:53:37;4.80;99.90
38090;DHT22;23904;52.322;10.232;2023-04-01T22:56:18;4.90;99.90
38090;DHT22;23904;52.322;10.232;2023-04-01T22:59:02;4.80;99.90
38090;DHT22;23904;52.322;10.232;2023-04-01T23:01:36;4.80;99.90
38090;DHT22;23904;52.322;10.232;2023-04-01T23:04:07;4.80;99.90
38090;DHT22;23904;52.322;10.232;2023-04-01T23:06:38;4.80;99.90
38090;DHT22;23904;52.322;10.232;2023-04-01T23:09:33;4.80;99.90
38090;DHT22;23904;52.322;10.232;2023-04-01T23:12:14;4.70;99.90
38090;DHT22;23904;52.322;10.232;2023-04-01T23:14:47;4.70;99.90
38090;DHT22;23904;52.322;10.232;2023-04-01T23:20:17;4.70;99.90